sensor_id;sensor_type;location;lat;lon;timestamp;P1;durP1;ratioP1;P2;durP2;ratioP2
58770;SDS011;44539;42.962;1.596;2022-09-17T08:07:59;5.50;;;2.50;;
58770;SDS011;44539;42.962;1.596;2022-09-17T08:10:24;7.72;;;2.65;;
58770;SDS011;44539;42.962;1.596;2022-09-17T08:12:53;6.13;;;2.50;;
58770;SDS011;44539;42.962;1.596;2022-09-17T08:15:21;5.78;;;2.65;;
58770;SDS011;44539;42.962;1.596;2022-09-17T08:17:47;10.43;;;2.70;;
58770;SDS011;44539;42.962;1.596;2022-09-17T08:20:13;7.63;;;2.60;;
58770;SDS011;44539;42.962;1.596;2022-09-17T08:22:40;8.65;;;2.42;;
58770;SDS011;44539;42.962;1.596;2022-09-17T08:25:06;6.97;;;2.40;;
58770;SDS011;44539;42.962;1.596;2022-09-17T08:27:32;8.40;;;3.40;;
58770;SDS011;44539;42.962;1.596;2022-09-17T08:29:57;4.63;;;2.35;;
58770;SDS011;44539;42.962;1.596;2022-09-17T08:32:23;4.47;;;2.47;;
58770;SDS011;44539;42.962;1.596;2022-09-17T08:34:49;5.50;;;2.47;;
58770;SDS011;44539;42.962;1.596;2022-09-17T08:37:14;6.28;;;3.10;;
58770;SDS011;44539;42.962;1.596;2022-09-17T08:39:40;5.90;;;2.40;;
58770;SDS011;44539;42.962;1.596;2022-09-17T08:42:11;7.20;;;2.25;;
58770;SDS011;44539;42.962;1.596;2022-09-17T08:44:48;5.82;;;2.40;;
58770;SDS011;44539;42.962;1.596;2022-09-17T08:49:55;4.15;;;2.20;;
58770;SDS011;44539;42.962;1.596;2022-09-17T08:58:27;4.78;;;2.10;;
58770;SDS011;44539;42.962;1.596;2022-09-17T09:03:52;4.45;;;2.35;;
58770;SDS011;44539;42.962;1.596;2022-09-17T09:06:37;4.03;;;2.20;;
58770;SDS011;44539;42.962;1.596;2022-09-17T09:09:12;3.85;;;2.20;;
58770;SDS011;44539;42.962;1.596;2022-09-17T09:11:40;3.28;;;1.90;;
58770;SDS011;44539;42.962;1.596;2022-09-17T09:16:54;4.45;;;2.00;;
58770;SDS011;44539;42.962;1.596;2022-09-17T09:19:25;5.75;;;1.95;;
58770;SDS011;44539;42.962;1.596;2022-09-17T09:24:36;6.30;;;2.15;;
58770;SDS011;44539;42.962;1.596;2022-09-17T09:29:41;4.38;;;1.88;;
58770;SDS011;44539;42.962;1.596;2022-09-17T09:35:18;5.18;;;2.00;;
58770;SDS011;44539;42.962;1.596;2022-09-17T09:54:11;3.47;;;1.85;;
58770;SDS011;44539;42.962;1.596;2022-09-17T10:03:12;3.95;;;1.63;;
58770;SDS011;44539;42.962;1.596;2022-09-17T10:06:01;5.45;;;2.42;;
58770;SDS011;44539;42.962;1.596;2022-09-17T10:08:29;8.55;;;1.95;;
58770;SDS011;44539;42.962;1.596;2022-09-17T10:13:22;5.13;;;1.77;;
58770;SDS011;44539;42.962;1.596;2022-09-17T10:15:48;3.70;;;1.70;;
58770;SDS011;44539;42.962;1.596;2022-09-17T10:18:21;5.75;;;2.17;;
58770;SDS011;44539;42.962;1.596;2022-09-17T10:20:55;5.57;;;2.10;;
58770;SDS011;44539;42.962;1.596;2022-09-17T10:23:21;6.47;;;2.20;;
58770;SDS011;44539;42.962;1.596;2022-09-17T10:25:48;3.95;;;1.67;;
58770;SDS011;44539;42.962;1.596;2022-09-17T10:28:37;8.68;;;2.05;;
58770;SDS011;44539;42.962;1.596;2022-09-17T10:31:10;4.00;;;1.50;;
58770;SDS011;44539;42.962;1.596;2022-09-17T10:33:57;3.88;;;1.83;;
58770;SDS011;44539;42.962;1.596;2022-09-17T10:36:42;3.58;;;1.80;;
58770;SDS011;44539;42.962;1.596;2022-09-17T10:39:29;3.78;;;1.63;;
58770;SDS011;44539;42.962;1.596;2022-09-17T10:41:59;4.30;;;1.80;;
58770;SDS011;44539;42.962;1.596;2022-09-17T10:44:29;2.75;;;1.77;;
58770;SDS011;44539;42.962;1.596;2022-09-17T10:47:05;2.70;;;1.70;;
58770;SDS011;44539;42.962;1.596;2022-09-17T10:49:45;4.45;;;1.65;;
58770;SDS011;44539;42.962;1.596;2022-09-17T10:52:27;5.00;;;1.63;;
58770;SDS011;44539;42.962;1.596;2022-09-17T11:22:41;5.20;;;1.80;;
58770;SDS011;44539;42.962;1.596;2022-09-17T11:28:25;4.22;;;1.77;;
58770;SDS011;44539;42.962;1.596;2022-09-17T11:31:04;4.18;;;1.80;;
58770;SDS011;44539;42.962;1.596;2022-09-17T11:33:58;3.95;;;1.83;;
58770;SDS011;44539;42.962;1.596;2022-09-17T11:39:38;3.60;;;1.38;;
58770;SDS011;44539;42.962;1.596;2022-09-17T11:42:16;3.63;;;1.45;;
58770;SDS011;44539;42.962;1.596;2022-09-17T11:44:54;4.43;;;1.70;;
58770;SDS011;44539;42.962;1.596;2022-09-17T11:47:24;2.63;;;1.40;;
58770;SDS011;44539;42.962;1.596;2022-09-17T11:49:59;3.75;;;1.58;;
58770;SDS011;44539;42.962;1.596;2022-09-17T11:52:37;4.93;;;1.50;;
58770;SDS011;44539;42.962;1.596;2022-09-17T11:57:58;4.07;;;1.58;;
58770;SDS011;44539;42.962;1.596;2022-09-17T12:00:27;3.58;;;1.67;;
58770;SDS011;44539;42.962;1.596;2022-09-17T12:03:08;6.10;;;1.67;;
58770;SDS011;44539;42.962;1.596;2022-09-17T12:05:43;6.40;;;1.90;;
58770;SDS011;44539;42.962;1.596;2022-09-17T12:08:16;4.05;;;1.70;;
58770;SDS011;44539;42.962;1.596;2022-09-17T12:16:27;3.45;;;1.73;;
58770;SDS011;44539;42.962;1.596;2022-09-17T12:19:20;2.57;;;1.50;;
58770;SDS011;44539;42.962;1.596;2022-09-17T12:21:52;2.80;;;1.75;;
58770;SDS011;44539;42.962;1.596;2022-09-17T12:24:25;7.18;;;1.75;;
58770;SDS011;44539;42.962;1.596;2022-09-17T12:43:08;3.25;;;1.70;;
58770;SDS011;44539;42.962;1.596;2022-09-17T13:00:09;3.60;;;1.80;;
58770;SDS011;44539;42.962;1.596;2022-09-17T13:16:45;4.22;;;1.55;;
58770;SDS011;44539;42.962;1.596;2022-09-17T13:19:24;3.95;;;1.73;;
58770;SDS011;44539;42.962;1.596;2022-09-17T13:22:17;4.38;;;1.88;;
58770;SDS011;44539;42.962;1.596;2022-09-17T13:24:45;5.47;;;1.92;;
58770;SDS011;44539;42.962;1.596;2022-09-17T13:27:25;4.22;;;2.05;;
58770;SDS011;44539;42.962;1.596;2022-09-17T13:37:59;3.05;;;1.58;;
58770;SDS011;44539;42.962;1.596;2022-09-17T13:40:34;3.20;;;1.48;;
58770;SDS011;44539;42.962;1.596;2022-09-17T13:45:32;3.95;;;1.58;;
58770;SDS011;44539;42.962;1.596;2022-09-17T13:48:08;3.65;;;1.50;;
58770;SDS011;44539;42.962;1.596;2022-09-17T13:50:36;2.95;;;1.55;;
58770;SDS011;44539;42.962;1.596;2022-09-17T13:55:39;2.63;;;1.42;;
58770;SDS011;44539;42.962;1.596;2022-09-17T14:00:49;2.33;;;1.52;;
58770;SDS011;44539;42.962;1.596;2022-09-17T14:13:51;4.32;;;1.92;;
58770;SDS011;44539;42.962;1.596;2022-09-17T14:16:30;3.60;;;1.42;;
58770;SDS011;44539;42.962;1.596;2022-09-17T14:21:39;2.72;;;1.38;;
58770;SDS011;44539;42.962;1.596;2022-09-17T14:24:24;4.30;;;1.40;;
58770;SDS011;44539;42.962;1.596;2022-09-17T14:30:36;2.78;;;1.50;;
58770;SDS011;44539;42.962;1.596;2022-09-17T14:32:41;3.90;;;1.70;;
58770;SDS011;44539;42.962;1.596;2022-09-17T14:41:28;3.15;;;1.50;;
58770;SDS011;44539;42.962;1.596;2022-09-17T14:44:00;3.25;;;1.30;;
58770;SDS011;44539;42.962;1.596;2022-09-17T14:46:36;4.65;;;1.38;;
58770;SDS011;44539;42.962;1.596;2022-09-17T14:49:23;2.17;;;1.25;;
58770;SDS011;44539;42.962;1.596;2022-09-17T14:51:55;3.65;;;1.60;;
58770;SDS011;44539;42.962;1.596;2022-09-17T14:56:52;7.15;;;1.98;;
58770;SDS011;44539;42.962;1.596;2022-09-17T14:59:20;2.75;;;1.33;;
58770;SDS011;44539;42.962;1.596;2022-09-17T15:01:49;3.70;;;1.48;;
58770;SDS011;44539;42.962;1.596;2022-09-17T15:04:22;3.47;;;1.40;;
58770;SDS011;44539;42.962;1.596;2022-09-17T15:06:50;4.30;;;1.60;;
58770;SDS011;44539;42.962;1.596;2022-09-17T15:09:23;2.00;;;1.30;;
58770;SDS011;44539;42.962;1.596;2022-09-17T15:11:53;2.88;;;1.42;;
58770;SDS011;44539;42.962;1.596;2022-09-17T15:14:24;3.38;;;1.40;;
58770;SDS011;44539;42.962;1.596;2022-09-17T15:16:54;4.05;;;1.58;;
58770;SDS011;44539;42.962;1.596;2022-09-17T15:20:08;2.22;;;1.40;;
58770;SDS011;44539;42.962;1.596;2022-09-17T15:25:15;2.65;;;1.48;;
58770;SDS011;44539;42.962;1.596;2022-09-17T15:27:47;3.15;;;1.50;;
58770;SDS011;44539;42.962;1.596;2022-09-17T15:30:17;2.58;;;1.63;;
58770;SDS011;44539;42.962;1.596;2022-09-17T15:32:48;3.38;;;1.40;;
58770;SDS011;44539;42.962;1.596;2022-09-17T15:35:27;4.10;;;1.63;;
58770;SDS011;44539;42.962;1.596;2022-09-17T15:38:00;3.03;;;1.30;;
58770;SDS011;44539;42.962;1.596;2022-09-17T15:40:30;2.55;;;1.20;;
58770;SDS011;44539;42.962;1.596;2022-09-17T15:43:00;3.47;;;1.40;;
58770;SDS011;44539;42.962;1.596;2022-09-17T15:45:28;3.08;;;1.40;;
58770;SDS011;44539;42.962;1.596;2022-09-17T15:50:22;2.25;;;1.30;;
58770;SDS011;44539;42.962;1.596;2022-09-17T15:52:50;4.70;;;1.73;;
58770;SDS011;44539;42.962;1.596;2022-09-17T15:56:05;2.20;;;1.40;;
58770;SDS011;44539;42.962;1.596;2022-09-17T15:58:24;2.58;;;1.27;;
58770;SDS011;44539;42.962;1.596;2022-09-17T16:08:42;5.30;;;1.52;;
58770;SDS011;44539;42.962;1.596;2022-09-17T16:11:15;2.78;;;1.45;;
58770;SDS011;44539;42.962;1.596;2022-09-17T16:13:42;3.10;;;1.50;;
58770;SDS011;44539;42.962;1.596;2022-09-17T16:16:13;3.17;;;1.50;;
58770;SDS011;44539;42.962;1.596;2022-09-17T16:18:41;2.95;;;1.40;;
58770;SDS011;44539;42.962;1.596;2022-09-17T16:21:09;3.03;;;1.80;;
58770;SDS011;44539;42.962;1.596;2022-09-17T16:23:35;2.25;;;1.60;;
58770;SDS011;44539;42.962;1.596;2022-09-17T16:26:00;3.20;;;1.50;;
58770;SDS011;44539;42.962;1.596;2022-09-17T16:28:25;4.35;;;1.65;;
58770;SDS011;44539;42.962;1.596;2022-09-17T16:30:51;2.42;;;1.20;;
58770;SDS011;44539;42.962;1.596;2022-09-17T16:33:17;2.88;;;1.30;;
58770;SDS011;44539;42.962;1.596;2022-09-17T16:35:43;2.13;;;1.20;;
58770;SDS011;44539;42.962;1.596;2022-09-17T16:38:09;2.78;;;1.23;;
58770;SDS011;44539;42.962;1.596;2022-09-17T16:40:39;2.63;;;1.52;;
58770;SDS011;44539;42.962;1.596;2022-09-17T16:43:10;3.05;;;1.48;;
58770;SDS011;44539;42.962;1.596;2022-09-17T16:45:36;3.28;;;1.30;;
58770;SDS011;44539;42.962;1.596;2022-09-17T16:48:01;3.03;;;1.40;;
58770;SDS011;44539;42.962;1.596;2022-09-17T16:50:27;2.22;;;1.20;;
58770;SDS011;44539;42.962;1.596;2022-09-17T16:52:53;2.55;;;1.20;;
58770;SDS011;44539;42.962;1.596;2022-09-17T16:55:19;2.83;;;1.13;;
58770;SDS011;44539;42.962;1.596;2022-09-17T16:57:45;2.58;;;1.48;;
58770;SDS011;44539;42.962;1.596;2022-09-17T17:00:12;2.33;;;1.40;;
58770;SDS011;44539;42.962;1.596;2022-09-17T17:02:41;3.17;;;1.30;;
58770;SDS011;44539;42.962;1.596;2022-09-17T17:05:08;2.67;;;1.38;;
58770;SDS011;44539;42.962;1.596;2022-09-17T17:07:35;2.45;;;1.40;;
58770;SDS011;44539;42.962;1.596;2022-09-17T17:10:01;1.48;;;1.00;;
58770;SDS011;44539;42.962;1.596;2022-09-17T17:12:27;2.75;;;1.20;;
58770;SDS011;44539;42.962;1.596;2022-09-17T17:14:53;2.90;;;1.38;;
58770;SDS011;44539;42.962;1.596;2022-09-17T17:17:19;3.38;;;1.40;;
58770;SDS011;44539;42.962;1.596;2022-09-17T17:19:45;1.83;;;1.13;;
58770;SDS011;44539;42.962;1.596;2022-09-17T17:22:14;10.18;;;1.42;;
58770;SDS011;44539;42.962;1.596;2022-09-17T17:24:40;1.50;;;1.02;;
58770;SDS011;44539;42.962;1.596;2022-09-17T17:27:05;2.88;;;1.20;;
58770;SDS011;44539;42.962;1.596;2022-09-17T17:29:33;2.38;;;1.30;;
58770;SDS011;44539;42.962;1.596;2022-09-17T17:31:59;2.35;;;1.25;;
58770;SDS011;44539;42.962;1.596;2022-09-17T17:34:25;2.75;;;1.50;;
58770;SDS011;44539;42.962;1.596;2022-09-17T17:36:50;1.92;;;1.00;;
58770;SDS011;44539;42.962;1.596;2022-09-17T17:39:15;3.53;;;1.45;;
58770;SDS011;44539;42.962;1.596;2022-09-17T17:41:41;2.97;;;1.35;;
58770;SDS011;44539;42.962;1.596;2022-09-17T17:44:07;6.00;;;3.17;;
58770;SDS011;44539;42.962;1.596;2022-09-17T17:46:36;7.68;;;4.03;;
58770;SDS011;44539;42.962;1.596;2022-09-17T17:49:02;6.57;;;2.80;;
58770;SDS011;44539;42.962;1.596;2022-09-17T17:51:28;3.80;;;1.80;;
58770;SDS011;44539;42.962;1.596;2022-09-17T17:53:53;2.65;;;1.40;;
58770;SDS011;44539;42.962;1.596;2022-09-17T17:56:18;3.58;;;1.30;;
58770;SDS011;44539;42.962;1.596;2022-09-17T17:58:44;3.53;;;1.20;;
58770;SDS011;44539;42.962;1.596;2022-09-17T18:01:11;3.17;;;1.85;;
58770;SDS011;44539;42.962;1.596;2022-09-17T18:03:41;3.00;;;1.45;;
58770;SDS011;44539;42.962;1.596;2022-09-17T18:06:07;3.08;;;1.25;;
58770;SDS011;44539;42.962;1.596;2022-09-17T18:08:36;2.20;;;1.30;;
58770;SDS011;44539;42.962;1.596;2022-09-17T18:11:02;2.08;;;1.13;;
58770;SDS011;44539;42.962;1.596;2022-09-17T18:13:28;2.55;;;1.33;;
58770;SDS011;44539;42.962;1.596;2022-09-17T18:15:58;3.35;;;1.40;;
58770;SDS011;44539;42.962;1.596;2022-09-17T18:18:25;3.10;;;1.40;;
58770;SDS011;44539;42.962;1.596;2022-09-17T18:21:00;2.35;;;1.40;;
58770;SDS011;44539;42.962;1.596;2022-09-17T18:23:30;2.42;;;1.58;;
58770;SDS011;44539;42.962;1.596;2022-09-17T18:25:58;2.50;;;1.60;;
58770;SDS011;44539;42.962;1.596;2022-09-17T18:28:25;4.30;;;1.80;;
58770;SDS011;44539;42.962;1.596;2022-09-17T18:30:51;3.78;;;1.50;;
